Terminal Aerodrome Forecast
Issued by NWS

Home | Current Version | Previous Version | Graphics & Text | Print | Product List | Glossary On
Versions: 1 2 3 4 5 6 7 8 9 10 11 12 13 14 15 16 17 18 19
000
FTUS43 KLSX 262100 AAB
TAFSUS
TAF AMD
KSUS 262108Z 2621/2718 VRB03KT 2SM -DZSN BR OVC007
     FM270000 29006KT 6SM BR VCSH OVC012
     FM270600 32010KT P6SM OVC015
     FM271400 31010KT P6SM BKN020=

USA.gov is the U.S. government's official web portal to all federal, state and local government web resources and services.